sensor_id;sensor_type;location;lat;lon;timestamp;P1;durP1;ratioP1;P2;durP2;ratioP2
26953;SDS011;14508;50.924;11.600;2024-02-26T00:02:24;6.90;;;3.53;;
26953;SDS011;14508;50.924;11.600;2024-02-26T00:04:51;6.28;;;3.45;;
26953;SDS011;14508;50.924;11.600;2024-02-26T00:07:19;7.97;;;3.33;;
26953;SDS011;14508;50.924;11.600;2024-02-26T00:09:47;7.93;;;3.50;;
26953;SDS011;14508;50.924;11.600;2024-02-26T00:12:15;5.68;;;3.38;;
26953;SDS011;14508;50.924;11.600;2024-02-26T00:14:45;4.85;;;2.88;;
26953;SDS011;14508;50.924;11.600;2024-02-26T00:17:14;4.70;;;2.92;;
26953;SDS011;14508;50.924;11.600;2024-02-26T00:19:42;12.68;;;3.55;;
26953;SDS011;14508;50.924;11.600;2024-02-26T00:22:10;11.93;;;3.80;;
26953;SDS011;14508;50.924;11.600;2024-02-26T00:24:39;7.53;;;3.40;;
26953;SDS011;14508;50.924;11.600;2024-02-26T00:27:07;8.68;;;3.92;;
26953;SDS011;14508;50.924;11.600;2024-02-26T00:29:35;8.35;;;3.88;;
26953;SDS011;14508;50.924;11.600;2024-02-26T00:32:05;6.28;;;3.53;;
26953;SDS011;14508;50.924;11.600;2024-02-26T00:34:33;5.65;;;3.83;;
26953;SDS011;14508;50.924;11.600;2024-02-26T00:37:01;9.38;;;3.60;;
26953;SDS011;14508;50.924;11.600;2024-02-26T00:39:29;5.75;;;3.40;;
26953;SDS011;14508;50.924;11.600;2024-02-26T00:41:57;5.82;;;2.80;;
26953;SDS011;14508;50.924;11.600;2024-02-26T00:44:25;7.22;;;3.50;;
26953;SDS011;14508;50.924;11.600;2024-02-26T00:46:52;7.13;;;3.55;;
26953;SDS011;14508;50.924;11.600;2024-02-26T00:49:22;8.80;;;3.65;;
26953;SDS011;14508;50.924;11.600;2024-02-26T00:51:49;6.28;;;3.53;;
26953;SDS011;14508;50.924;11.600;2024-02-26T00:54:17;6.85;;;3.25;;
26953;SDS011;14508;50.924;11.600;2024-02-26T00:56:45;7.47;;;4.13;;
26953;SDS011;14508;50.924;11.600;2024-02-26T00:59:13;8.00;;;3.20;;
26953;SDS011;14508;50.924;11.600;2024-02-26T01:01:41;7.28;;;3.40;;
26953;SDS011;14508;50.924;11.600;2024-02-26T01:04:09;7.82;;;2.92;;
26953;SDS011;14508;50.924;11.600;2024-02-26T01:06:39;9.68;;;3.15;;
26953;SDS011;14508;50.924;11.600;2024-02-26T01:09:07;9.43;;;3.45;;
26953;SDS011;14508;50.924;11.600;2024-02-26T01:11:35;12.52;;;3.85;;
26953;SDS011;14508;50.924;11.600;2024-02-26T01:14:03;6.32;;;3.35;;
26953;SDS011;14508;50.924;11.600;2024-02-26T01:16:31;10.57;;;3.90;;
26953;SDS011;14508;50.924;11.600;2024-02-26T01:18:59;8.38;;;3.35;;
26953;SDS011;14508;50.924;11.600;2024-02-26T01:21:27;6.97;;;3.60;;
26953;SDS011;14508;50.924;11.600;2024-02-26T01:23:57;10.48;;;4.18;;
26953;SDS011;14508;50.924;11.600;2024-02-26T01:26:25;7.30;;;3.40;;
26953;SDS011;14508;50.924;11.600;2024-02-26T01:28:53;11.57;;;3.65;;
26953;SDS011;14508;50.924;11.600;2024-02-26T01:31:21;6.50;;;3.50;;
26953;SDS011;14508;50.924;11.600;2024-02-26T01:33:49;13.82;;;3.65;;
26953;SDS011;14508;50.924;11.600;2024-02-26T01:36:17;8.82;;;4.05;;
26953;SDS011;14508;50.924;11.600;2024-02-26T01:38:45;8.52;;;4.38;;
26953;SDS011;14508;50.924;11.600;2024-02-26T01:41:14;8.68;;;4.07;;
26953;SDS011;14508;50.924;11.600;2024-02-26T01:43:42;7.63;;;3.50;;
26953;SDS011;14508;50.924;11.600;2024-02-26T01:46:11;8.55;;;3.72;;
26953;SDS011;14508;50.924;11.600;2024-02-26T01:48:41;8.38;;;3.35;;
26953;SDS011;14508;50.924;11.600;2024-02-26T01:51:12;8.02;;;3.65;;
26953;SDS011;14508;50.924;11.600;2024-02-26T01:53:41;7.88;;;3.90;;
26953;SDS011;14508;50.924;11.600;2024-02-26T01:56:10;7.43;;;3.90;;
26953;SDS011;14508;50.924;11.600;2024-02-26T01:58:39;6.63;;;3.50;;
26953;SDS011;14508;50.924;11.600;2024-02-26T02:01:08;9.73;;;4.38;;
26953;SDS011;14508;50.924;11.600;2024-02-26T02:03:37;10.70;;;3.65;;
26953;SDS011;14508;50.924;11.600;2024-02-26T02:06:05;7.63;;;4.10;;
26953;SDS011;14508;50.924;11.600;2024-02-26T02:08:34;11.20;;;3.75;;
26953;SDS011;14508;50.924;11.600;2024-02-26T02:11:02;11.90;;;4.50;;
26953;SDS011;14508;50.924;11.600;2024-02-26T02:13:30;7.28;;;3.80;;
26953;SDS011;14508;50.924;11.600;2024-02-26T02:15:59;13.20;;;4.07;;
26953;SDS011;14508;50.924;11.600;2024-02-26T02:18:27;9.75;;;4.03;;
26953;SDS011;14508;50.924;11.600;2024-02-26T02:20:57;8.90;;;4.55;;
26953;SDS011;14508;50.924;11.600;2024-02-26T02:23:27;9.07;;;3.58;;
26953;SDS011;14508;50.924;11.600;2024-02-26T02:25:55;12.48;;;4.28;;
26953;SDS011;14508;50.924;11.600;2024-02-26T02:28:25;8.95;;;3.90;;
26953;SDS011;14508;50.924;11.600;2024-02-26T02:30:54;6.40;;;3.60;;
26953;SDS011;14508;50.924;11.600;2024-02-26T02:33:23;8.35;;;3.97;;
26953;SDS011;14508;50.924;11.600;2024-02-26T02:35:53;9.68;;;4.18;;
26953;SDS011;14508;50.924;11.600;2024-02-26T02:38:23;8.85;;;3.65;;
26953;SDS011;14508;50.924;11.600;2024-02-26T02:40:52;13.00;;;4.35;;
26953;SDS011;14508;50.924;11.600;2024-02-26T02:43:20;8.75;;;4.40;;
26953;SDS011;14508;50.924;11.600;2024-02-26T02:45:48;7.38;;;3.95;;
26953;SDS011;14508;50.924;11.600;2024-02-26T02:48:15;11.70;;;4.78;;
26953;SDS011;14508;50.924;11.600;2024-02-26T02:50:44;10.90;;;4.60;;
26953;SDS011;14508;50.924;11.600;2024-02-26T02:53:12;10.48;;;4.63;;
26953;SDS011;14508;50.924;11.600;2024-02-26T02:55:43;6.85;;;3.55;;
26953;SDS011;14508;50.924;11.600;2024-02-26T02:58:11;11.23;;;4.22;;
26953;SDS011;14508;50.924;11.600;2024-02-26T03:00:39;11.05;;;4.53;;
26953;SDS011;14508;50.924;11.600;2024-02-26T03:03:07;13.15;;;5.10;;
26953;SDS011;14508;50.924;11.600;2024-02-26T03:05:35;13.25;;;5.47;;
26953;SDS011;14508;50.924;11.600;2024-02-26T03:08:03;8.18;;;4.25;;
26953;SDS011;14508;50.924;11.600;2024-02-26T03:10:31;9.90;;;4.50;;
26953;SDS011;14508;50.924;11.600;2024-02-26T03:13:00;11.18;;;4.57;;
26953;SDS011;14508;50.924;11.600;2024-02-26T03:15:29;7.28;;;4.13;;
26953;SDS011;14508;50.924;11.600;2024-02-26T03:17:56;7.88;;;4.25;;
26953;SDS011;14508;50.924;11.600;2024-02-26T03:20:24;13.15;;;5.00;;
26953;SDS011;14508;50.924;11.600;2024-02-26T03:22:52;14.60;;;4.68;;
26953;SDS011;14508;50.924;11.600;2024-02-26T03:25:20;13.95;;;4.95;;
26953;SDS011;14508;50.924;11.600;2024-02-26T03:27:48;12.68;;;5.60;;
26953;SDS011;14508;50.924;11.600;2024-02-26T03:30:17;14.18;;;4.85;;
26953;SDS011;14508;50.924;11.600;2024-02-26T03:32:45;13.18;;;5.10;;
26953;SDS011;14508;50.924;11.600;2024-02-26T03:35:14;9.70;;;4.90;;
26953;SDS011;14508;50.924;11.600;2024-02-26T03:37:42;10.27;;;4.70;;
26953;SDS011;14508;50.924;11.600;2024-02-26T03:40:10;7.95;;;4.00;;
26953;SDS011;14508;50.924;11.600;2024-02-26T03:42:40;16.08;;;5.05;;
26953;SDS011;14508;50.924;11.600;2024-02-26T03:45:09;11.02;;;4.68;;
26953;SDS011;14508;50.924;11.600;2024-02-26T03:47:38;9.57;;;5.07;;
26953;SDS011;14508;50.924;11.600;2024-02-26T03:50:07;13.52;;;6.03;;
26953;SDS011;14508;50.924;11.600;2024-02-26T03:52:35;12.25;;;4.93;;
26953;SDS011;14508;50.924;11.600;2024-02-26T03:55:04;12.00;;;4.53;;
26953;SDS011;14508;50.924;11.600;2024-02-26T03:57:32;11.52;;;4.60;;
26953;SDS011;14508;50.924;11.600;2024-02-26T03:59:59;11.75;;;4.78;;
26953;SDS011;14508;50.924;11.600;2024-02-26T04:02:36;7.55;;;4.75;;
26953;SDS011;14508;50.924;11.600;2024-02-26T04:05:08;11.93;;;5.38;;
26953;SDS011;14508;50.924;11.600;2024-02-26T04:07:37;12.98;;;5.28;;
26953;SDS011;14508;50.924;11.600;2024-02-26T04:10:08;9.63;;;4.72;;
26953;SDS011;14508;50.924;11.600;2024-02-26T04:12:37;11.57;;;4.93;;
26953;SDS011;14508;50.924;11.600;2024-02-26T04:15:06;14.43;;;5.18;;
26953;SDS011;14508;50.924;11.600;2024-02-26T04:17:35;9.52;;;4.97;;
26953;SDS011;14508;50.924;11.600;2024-02-26T04:20:06;18.70;;;5.40;;
26953;SDS011;14508;50.924;11.600;2024-02-26T04:22:36;16.92;;;6.22;;
26953;SDS011;14508;50.924;11.600;2024-02-26T04:25:04;15.65;;;6.03;;
26953;SDS011;14508;50.924;11.600;2024-02-26T04:27:32;14.75;;;5.82;;
26953;SDS011;14508;50.924;11.600;2024-02-26T04:30:00;11.80;;;5.60;;
26953;SDS011;14508;50.924;11.600;2024-02-26T04:32:28;14.93;;;7.20;;
26953;SDS011;14508;50.924;11.600;2024-02-26T04:34:56;9.05;;;5.22;;
26953;SDS011;14508;50.924;11.600;2024-02-26T04:37:25;13.82;;;5.95;;
26953;SDS011;14508;50.924;11.600;2024-02-26T04:39:57;15.18;;;6.88;;
26953;SDS011;14508;50.924;11.600;2024-02-26T04:42:26;37.40;;;11.52;;
26953;SDS011;14508;50.924;11.600;2024-02-26T04:44:54;39.00;;;13.25;;
26953;SDS011;14508;50.924;11.600;2024-02-26T04:47:22;20.98;;;8.55;;
26953;SDS011;14508;50.924;11.600;2024-02-26T04:49:50;15.60;;;6.60;;
26953;SDS011;14508;50.924;11.600;2024-02-26T04:52:18;11.90;;;5.43;;
26953;SDS011;14508;50.924;11.600;2024-02-26T04:54:48;15.98;;;6.30;;
26953;SDS011;14508;50.924;11.600;2024-02-26T04:57:16;15.20;;;6.57;;
26953;SDS011;14508;50.924;11.600;2024-02-26T04:59:44;13.00;;;6.13;;
26953;SDS011;14508;50.924;11.600;2024-02-26T05:02:13;16.08;;;5.50;;
26953;SDS011;14508;50.924;11.600;2024-02-26T05:04:41;13.05;;;6.85;;
26953;SDS011;14508;50.924;11.600;2024-02-26T05:07:09;13.07;;;5.65;;
26953;SDS011;14508;50.924;11.600;2024-02-26T05:09:39;13.10;;;5.35;;
26953;SDS011;14508;50.924;11.600;2024-02-26T05:12:09;13.82;;;5.78;;
26953;SDS011;14508;50.924;11.600;2024-02-26T05:14:37;21.25;;;6.78;;
26953;SDS011;14508;50.924;11.600;2024-02-26T05:17:06;11.15;;;5.25;;
26953;SDS011;14508;50.924;11.600;2024-02-26T05:19:34;8.63;;;4.63;;
26953;SDS011;14508;50.924;11.600;2024-02-26T05:22:02;12.40;;;4.55;;
26953;SDS011;14508;50.924;11.600;2024-02-26T05:24:29;12.75;;;4.82;;
26953;SDS011;14508;50.924;11.600;2024-02-26T05:26:57;11.88;;;5.07;;
26953;SDS011;14508;50.924;11.600;2024-02-26T05:29:27;14.88;;;5.25;;
26953;SDS011;14508;50.924;11.600;2024-02-26T05:31:55;11.30;;;5.35;;
26953;SDS011;14508;50.924;11.600;2024-02-26T05:34:23;15.90;;;5.03;;
26953;SDS011;14508;50.924;11.600;2024-02-26T05:36:51;11.27;;;4.97;;
26953;SDS011;14508;50.924;11.600;2024-02-26T05:39:19;24.15;;;5.32;;
26953;SDS011;14508;50.924;11.600;2024-02-26T05:41:47;13.40;;;5.10;;
26953;SDS011;14508;50.924;11.600;2024-02-26T05:44:16;12.20;;;4.82;;
26953;SDS011;14508;50.924;11.600;2024-02-26T05:46:45;12.70;;;4.50;;
26953;SDS011;14508;50.924;11.600;2024-02-26T05:49:13;10.20;;;4.30;;
26953;SDS011;14508;50.924;11.600;2024-02-26T05:51:41;6.22;;;3.72;;
26953;SDS011;14508;50.924;11.600;2024-02-26T05:54:09;12.95;;;5.05;;
26953;SDS011;14508;50.924;11.600;2024-02-26T05:56:37;9.35;;;4.55;;
26953;SDS011;14508;50.924;11.600;2024-02-26T05:59:05;7.25;;;3.30;;
26953;SDS011;14508;50.924;11.600;2024-02-26T06:01:33;8.85;;;3.67;;
26953;SDS011;14508;50.924;11.600;2024-02-26T06:04:02;10.25;;;4.13;;
26953;SDS011;14508;50.924;11.600;2024-02-26T06:06:31;10.40;;;4.25;;
26953;SDS011;14508;50.924;11.600;2024-02-26T06:09:00;7.53;;;3.95;;
26953;SDS011;14508;50.924;11.600;2024-02-26T06:11:28;11.18;;;4.18;;
26953;SDS011;14508;50.924;11.600;2024-02-26T06:13:56;8.40;;;4.35;;
26953;SDS011;14508;50.924;11.600;2024-02-26T06:16:26;11.68;;;5.05;;
26953;SDS011;14508;50.924;11.600;2024-02-26T06:18:54;11.40;;;4.88;;
26953;SDS011;14508;50.924;11.600;2024-02-26T06:21:24;18.20;;;5.75;;
26953;SDS011;14508;50.924;11.600;2024-02-26T06:23:52;15.50;;;4.72;;
26953;SDS011;14508;50.924;11.600;2024-02-26T06:26:21;13.95;;;5.05;;
26953;SDS011;14508;50.924;11.600;2024-02-26T06:28:49;15.52;;;5.32;;
26953;SDS011;14508;50.924;11.600;2024-02-26T06:31:18;9.65;;;4.78;;
26953;SDS011;14508;50.924;11.600;2024-02-26T06:33:47;14.30;;;3.95;;
26953;SDS011;14508;50.924;11.600;2024-02-26T06:36:15;10.20;;;4.20;;
26953;SDS011;14508;50.924;11.600;2024-02-26T06:38:45;18.30;;;4.35;;
26953;SDS011;14508;50.924;11.600;2024-02-26T06:41:13;8.27;;;5.00;;
26953;SDS011;14508;50.924;11.600;2024-02-26T06:43:41;17.42;;;4.63;;
26953;SDS011;14508;50.924;11.600;2024-02-26T06:46:09;11.27;;;4.43;;
26953;SDS011;14508;50.924;11.600;2024-02-26T06:48:36;8.23;;;4.25;;
26953;SDS011;14508;50.924;11.600;2024-02-26T06:51:04;13.15;;;4.47;;
26953;SDS011;14508;50.924;11.600;2024-02-26T06:53:33;13.48;;;4.88;;
26953;SDS011;14508;50.924;11.600;2024-02-26T06:56:02;14.25;;;4.18;;
26953;SDS011;14508;50.924;11.600;2024-02-26T06:58:31;15.05;;;5.00;;
26953;SDS011;14508;50.924;11.600;2024-02-26T07:00:59;8.20;;;4.57;;
26953;SDS011;14508;50.924;11.600;2024-02-26T07:03:27;8.57;;;4.22;;
26953;SDS011;14508;50.924;11.600;2024-02-26T07:05:56;8.35;;;4.15;;
26953;SDS011;14508;50.924;11.600;2024-02-26T07:08:24;9.82;;;4.57;;
26953;SDS011;14508;50.924;11.600;2024-02-26T07:10:52;16.08;;;5.53;;
26953;SDS011;14508;50.924;11.600;2024-02-26T07:13:22;19.30;;;6.28;;
26953;SDS011;14508;50.924;11.600;2024-02-26T07:15:50;19.60;;;7.13;;
26953;SDS011;14508;50.924;11.600;2024-02-26T07:18:18;31.20;;;6.13;;
26953;SDS011;14508;50.924;11.600;2024-02-26T07:20:46;14.60;;;6.25;;
26953;SDS011;14508;50.924;11.600;2024-02-26T07:23:14;20.02;;;5.72;;
26953;SDS011;14508;50.924;11.600;2024-02-26T07:25:42;11.07;;;5.43;;
26953;SDS011;14508;50.924;11.600;2024-02-26T07:28:13;16.08;;;6.05;;
26953;SDS011;14508;50.924;11.600;2024-02-26T07:30:43;15.15;;;6.60;;
26953;SDS011;14508;50.924;11.600;2024-02-26T07:33:11;17.75;;;7.05;;
26953;SDS011;14508;50.924;11.600;2024-02-26T07:35:39;18.88;;;6.95;;
26953;SDS011;14508;50.924;11.600;2024-02-26T07:38:07;11.02;;;5.30;;
26953;SDS011;14508;50.924;11.600;2024-02-26T07:40:48;16.50;;;6.15;;
26953;SDS011;14508;50.924;11.600;2024-02-26T07:43:27;16.10;;;5.85;;
26953;SDS011;14508;50.924;11.600;2024-02-26T07:45:57;13.82;;;5.55;;
26953;SDS011;14508;50.924;11.600;2024-02-26T07:48:25;16.75;;;6.78;;
26953;SDS011;14508;50.924;11.600;2024-02-26T07:50:53;18.15;;;6.00;;
26953;SDS011;14508;50.924;11.600;2024-02-26T07:53:21;12.00;;;5.38;;
26953;SDS011;14508;50.924;11.600;2024-02-26T07:55:49;16.65;;;5.95;;
26953;SDS011;14508;50.924;11.600;2024-02-26T07:58:17;17.05;;;5.35;;
26953;SDS011;14508;50.924;11.600;2024-02-26T08:00:45;10.63;;;5.72;;
26953;SDS011;14508;50.924;11.600;2024-02-26T08:03:14;16.52;;;5.32;;
26953;SDS011;14508;50.924;11.600;2024-02-26T08:05:43;13.93;;;6.10;;
26953;SDS011;14508;50.924;11.600;2024-02-26T08:08:11;11.77;;;5.88;;
26953;SDS011;14508;50.924;11.600;2024-02-26T08:10:39;15.68;;;5.90;;
26953;SDS011;14508;50.924;11.600;2024-02-26T08:13:06;13.90;;;5.85;;
26953;SDS011;14508;50.924;11.600;2024-02-26T08:15:35;20.00;;;7.38;;
26953;SDS011;14508;50.924;11.600;2024-02-26T08:18:04;16.33;;;7.30;;
26953;SDS011;14508;50.924;11.600;2024-02-26T08:20:34;17.67;;;6.38;;
26953;SDS011;14508;50.924;11.600;2024-02-26T08:23:01;22.52;;;7.22;;
26953;SDS011;14508;50.924;11.600;2024-02-26T08:25:29;12.68;;;6.53;;
26953;SDS011;14508;50.924;11.600;2024-02-26T08:27:57;20.45;;;6.80;;
26953;SDS011;14508;50.924;11.600;2024-02-26T08:30:25;14.85;;;6.40;;
26953;SDS011;14508;50.924;11.600;2024-02-26T08:32:53;15.88;;;7.15;;
26953;SDS011;14508;50.924;11.600;2024-02-26T08:35:21;22.67;;;7.03;;
26953;SDS011;14508;50.924;11.600;2024-02-26T08:37:50;16.48;;;7.30;;
26953;SDS011;14508;50.924;11.600;2024-02-26T08:40:18;19.55;;;6.63;;
26953;SDS011;14508;50.924;11.600;2024-02-26T08:42:46;13.98;;;6.15;;
26953;SDS011;14508;50.924;11.600;2024-02-26T08:45:14;18.35;;;7.55;;
26953;SDS011;14508;50.924;11.600;2024-02-26T08:47:44;14.65;;;6.53;;
26953;SDS011;14508;50.924;11.600;2024-02-26T08:50:12;24.38;;;8.95;;
26953;SDS011;14508;50.924;11.600;2024-02-26T08:52:41;14.48;;;6.38;;
26953;SDS011;14508;50.924;11.600;2024-02-26T08:55:10;19.65;;;7.35;;
26953;SDS011;14508;50.924;11.600;2024-02-26T08:57:39;21.75;;;6.85;;
26953;SDS011;14508;50.924;11.600;2024-02-26T09:00:08;13.75;;;6.53;;
26953;SDS011;14508;50.924;11.600;2024-02-26T09:02:37;14.32;;;7.18;;
26953;SDS011;14508;50.924;11.600;2024-02-26T09:05:06;20.10;;;7.78;;
26953;SDS011;14508;50.924;11.600;2024-02-26T09:07:34;17.55;;;7.20;;
26953;SDS011;14508;50.924;11.600;2024-02-26T09:10:02;16.08;;;6.85;;
26953;SDS011;14508;50.924;11.600;2024-02-26T09:12:32;20.40;;;7.15;;
26953;SDS011;14508;50.924;11.600;2024-02-26T09:15:00;18.83;;;7.00;;
26953;SDS011;14508;50.924;11.600;2024-02-26T09:17:28;15.32;;;7.47;;
26953;SDS011;14508;50.924;11.600;2024-02-26T09:19:56;15.90;;;7.22;;
26953;SDS011;14508;50.924;11.600;2024-02-26T09:22:24;21.92;;;7.40;;
26953;SDS011;14508;50.924;11.600;2024-02-26T09:24:51;17.88;;;7.70;;
26953;SDS011;14508;50.924;11.600;2024-02-26T09:27:19;21.92;;;7.07;;
26953;SDS011;14508;50.924;11.600;2024-02-26T09:29:49;19.92;;;8.32;;
26953;SDS011;14508;50.924;11.600;2024-02-26T09:32:17;17.27;;;7.38;;
26953;SDS011;14508;50.924;11.600;2024-02-26T09:34:45;20.90;;;7.88;;
26953;SDS011;14508;50.924;11.600;2024-02-26T09:37:12;25.63;;;7.97;;
26953;SDS011;14508;50.924;11.600;2024-02-26T09:39:47;21.55;;;8.23;;
26953;SDS011;14508;50.924;11.600;2024-02-26T09:42:16;19.23;;;8.65;;
26953;SDS011;14508;50.924;11.600;2024-02-26T09:44:46;22.65;;;8.90;;
26953;SDS011;14508;50.924;11.600;2024-02-26T09:47:20;27.33;;;8.60;;
26953;SDS011;14508;50.924;11.600;2024-02-26T09:49:50;29.58;;;8.98;;
26953;SDS011;14508;50.924;11.600;2024-02-26T09:52:20;32.45;;;9.93;;
26953;SDS011;14508;50.924;11.600;2024-02-26T09:54:49;28.98;;;9.52;;
26953;SDS011;14508;50.924;11.600;2024-02-26T09:57:17;29.80;;;10.50;;
26953;SDS011;14508;50.924;11.600;2024-02-26T09:59:45;25.35;;;10.15;;
26953;SDS011;14508;50.924;11.600;2024-02-26T10:02:16;30.23;;;10.23;;
26953;SDS011;14508;50.924;11.600;2024-02-26T10:04:47;24.42;;;9.95;;
26953;SDS011;14508;50.924;11.600;2024-02-26T10:07:18;28.98;;;11.05;;
26953;SDS011;14508;50.924;11.600;2024-02-26T10:09:47;27.88;;;11.02;;
26953;SDS011;14508;50.924;11.600;2024-02-26T10:12:15;32.88;;;13.02;;
26953;SDS011;14508;50.924;11.600;2024-02-26T10:14:44;28.63;;;12.05;;
26953;SDS011;14508;50.924;11.600;2024-02-26T10:17:12;33.47;;;14.02;;
26953;SDS011;14508;50.924;11.600;2024-02-26T10:19:41;38.40;;;12.93;;
26953;SDS011;14508;50.924;11.600;2024-02-26T10:22:09;37.45;;;14.93;;
26953;SDS011;14508;50.924;11.600;2024-02-26T10:24:37;35.47;;;14.25;;
26953;SDS011;14508;50.924;11.600;2024-02-26T10:27:05;36.13;;;14.40;;
26953;SDS011;14508;50.924;11.600;2024-02-26T10:29:34;32.63;;;14.77;;
26953;SDS011;14508;50.924;11.600;2024-02-26T10:32:02;38.72;;;14.68;;
26953;SDS011;14508;50.924;11.600;2024-02-26T10:34:30;37.95;;;14.75;;
26953;SDS011;14508;50.924;11.600;2024-02-26T10:37:02;36.10;;;15.43;;
26953;SDS011;14508;50.924;11.600;2024-02-26T10:39:30;32.50;;;14.18;;
26953;SDS011;14508;50.924;11.600;2024-02-26T10:41:59;36.72;;;14.93;;
26953;SDS011;14508;50.924;11.600;2024-02-26T10:44:33;33.55;;;14.85;;
26953;SDS011;14508;50.924;11.600;2024-02-26T10:47:00;37.00;;;15.13;;
26953;SDS011;14508;50.924;11.600;2024-02-26T10:49:28;35.53;;;15.48;;
26953;SDS011;14508;50.924;11.600;2024-02-26T10:51:57;38.40;;;14.70;;
26953;SDS011;14508;50.924;11.600;2024-02-26T10:54:29;34.97;;;14.52;;
26953;SDS011;14508;50.924;11.600;2024-02-26T10:57:00;37.78;;;16.10;;
26953;SDS011;14508;50.924;11.600;2024-02-26T10:59:29;33.90;;;15.35;;
26953;SDS011;14508;50.924;11.600;2024-02-26T11:02:00;37.33;;;16.48;;
26953;SDS011;14508;50.924;11.600;2024-02-26T11:04:29;40.95;;;15.50;;
26953;SDS011;14508;50.924;11.600;2024-02-26T11:06:58;36.08;;;15.80;;
26953;SDS011;14508;50.924;11.600;2024-02-26T11:09:27;37.25;;;14.93;;
26953;SDS011;14508;50.924;11.600;2024-02-26T11:11:57;33.60;;;13.95;;
26953;SDS011;14508;50.924;11.600;2024-02-26T11:14:27;40.53;;;17.20;;
26953;SDS011;14508;50.924;11.600;2024-02-26T11:16:57;40.90;;;16.92;;
26953;SDS011;14508;50.924;11.600;2024-02-26T11:19:27;33.63;;;14.63;;
26953;SDS011;14508;50.924;11.600;2024-02-26T11:22:00;30.63;;;14.45;;
26953;SDS011;14508;50.924;11.600;2024-02-26T11:24:45;35.20;;;15.23;;
26953;SDS011;14508;50.924;11.600;2024-02-26T11:27:14;35.92;;;15.77;;
26953;SDS011;14508;50.924;11.600;2024-02-26T11:29:47;36.42;;;13.88;;
26953;SDS011;14508;50.924;11.600;2024-02-26T11:32:18;36.00;;;15.40;;
26953;SDS011;14508;50.924;11.600;2024-02-26T11:34:46;32.03;;;15.25;;
26953;SDS011;14508;50.924;11.600;2024-02-26T11:37:16;40.30;;;16.05;;
26953;SDS011;14508;50.924;11.600;2024-02-26T11:39:46;35.85;;;14.43;;
26953;SDS011;14508;50.924;11.600;2024-02-26T11:42:14;38.17;;;16.67;;
26953;SDS011;14508;50.924;11.600;2024-02-26T11:44:43;36.85;;;15.77;;
26953;SDS011;14508;50.924;11.600;2024-02-26T11:47:12;32.50;;;15.00;;
26953;SDS011;14508;50.924;11.600;2024-02-26T11:49:41;32.55;;;14.32;;
26953;SDS011;14508;50.924;11.600;2024-02-26T11:52:09;32.10;;;15.80;;
26953;SDS011;14508;50.924;11.600;2024-02-26T11:54:38;34.33;;;14.23;;
26953;SDS011;14508;50.924;11.600;2024-02-26T11:57:21;30.52;;;14.68;;
26953;SDS011;14508;50.924;11.600;2024-02-26T11:59:54;37.88;;;16.40;;
26953;SDS011;14508;50.924;11.600;2024-02-26T12:02:39;37.03;;;15.20;;
26953;SDS011;14508;50.924;11.600;2024-02-26T12:05:09;38.97;;;17.63;;
26953;SDS011;14508;50.924;11.600;2024-02-26T12:07:40;32.03;;;14.90;;
26953;SDS011;14508;50.924;11.600;2024-02-26T12:10:23;35.30;;;14.15;;
26953;SDS011;14508;50.924;11.600;2024-02-26T12:12:54;34.85;;;15.52;;
26953;SDS011;14508;50.924;11.600;2024-02-26T12:15:30;32.97;;;14.68;;
26953;SDS011;14508;50.924;11.600;2024-02-26T12:18:01;36.00;;;15.43;;
26953;SDS011;14508;50.924;11.600;2024-02-26T12:20:29;36.55;;;15.73;;
26953;SDS011;14508;50.924;11.600;2024-02-26T12:22:58;36.40;;;15.80;;
26953;SDS011;14508;50.924;11.600;2024-02-26T12:25:27;36.38;;;16.13;;
26953;SDS011;14508;50.924;11.600;2024-02-26T12:27:58;30.98;;;14.68;;
26953;SDS011;14508;50.924;11.600;2024-02-26T12:30:26;30.42;;;14.88;;
26953;SDS011;14508;50.924;11.600;2024-02-26T12:32:59;30.73;;;14.40;;
26953;SDS011;14508;50.924;11.600;2024-02-26T12:35:28;37.60;;;15.77;;
26953;SDS011;14508;50.924;11.600;2024-02-26T12:37:57;31.25;;;14.95;;
26953;SDS011;14508;50.924;11.600;2024-02-26T12:40:26;30.95;;;15.40;;
26953;SDS011;14508;50.924;11.600;2024-02-26T12:42:55;32.22;;;14.70;;
26953;SDS011;14508;50.924;11.600;2024-02-26T12:45:24;26.08;;;14.15;;
26953;SDS011;14508;50.924;11.600;2024-02-26T12:47:55;32.83;;;15.57;;
26953;SDS011;14508;50.924;11.600;2024-02-26T12:50:23;33.13;;;15.10;;
26953;SDS011;14508;50.924;11.600;2024-02-26T12:52:57;27.10;;;14.13;;
26953;SDS011;14508;50.924;11.600;2024-02-26T12:55:26;34.55;;;16.02;;
26953;SDS011;14508;50.924;11.600;2024-02-26T12:57:54;33.25;;;13.73;;
26953;SDS011;14508;50.924;11.600;2024-02-26T13:00:29;32.00;;;13.75;;
26953;SDS011;14508;50.924;11.600;2024-02-26T13:03:00;41.03;;;16.77;;
26953;SDS011;14508;50.924;11.600;2024-02-26T13:05:28;36.58;;;15.85;;
26953;SDS011;14508;50.924;11.600;2024-02-26T13:07:57;33.90;;;15.68;;
26953;SDS011;14508;50.924;11.600;2024-02-26T13:10:25;29.33;;;15.07;;
26953;SDS011;14508;50.924;11.600;2024-02-26T13:12:53;34.47;;;15.65;;
26953;SDS011;14508;50.924;11.600;2024-02-26T13:15:21;40.05;;;15.40;;
26953;SDS011;14508;50.924;11.600;2024-02-26T13:17:51;30.98;;;15.18;;
26953;SDS011;14508;50.924;11.600;2024-02-26T13:20:26;29.45;;;14.13;;
26953;SDS011;14508;50.924;11.600;2024-02-26T13:23:02;32.35;;;14.10;;
26953;SDS011;14508;50.924;11.600;2024-02-26T13:25:31;26.25;;;13.65;;
26953;SDS011;14508;50.924;11.600;2024-02-26T13:28:06;27.98;;;13.23;;
26953;SDS011;14508;50.924;11.600;2024-02-26T13:30:35;32.40;;;13.90;;
26953;SDS011;14508;50.924;11.600;2024-02-26T13:33:08;29.40;;;13.55;;
26953;SDS011;14508;50.924;11.600;2024-02-26T13:35:37;31.52;;;14.18;;
26953;SDS011;14508;50.924;11.600;2024-02-26T13:38:06;31.70;;;14.45;;
26953;SDS011;14508;50.924;11.600;2024-02-26T13:40:34;25.92;;;13.45;;
26953;SDS011;14508;50.924;11.600;2024-02-26T13:43:03;28.42;;;13.85;;
26953;SDS011;14508;50.924;11.600;2024-02-26T13:45:33;41.55;;;14.70;;
26953;SDS011;14508;50.924;11.600;2024-02-26T13:48:05;32.05;;;13.73;;
26953;SDS011;14508;50.924;11.600;2024-02-26T13:50:38;30.65;;;13.50;;
26953;SDS011;14508;50.924;11.600;2024-02-26T13:53:07;29.88;;;13.48;;
26953;SDS011;14508;50.924;11.600;2024-02-26T13:55:35;30.20;;;14.20;;
26953;SDS011;14508;50.924;11.600;2024-02-26T13:58:03;28.20;;;12.90;;
26953;SDS011;14508;50.924;11.600;2024-02-26T14:00:31;35.45;;;16.77;;
26953;SDS011;14508;50.924;11.600;2024-02-26T14:03:00;28.75;;;11.70;;
26953;SDS011;14508;50.924;11.600;2024-02-26T14:05:30;28.88;;;12.75;;
26953;SDS011;14508;50.924;11.600;2024-02-26T14:07:58;25.83;;;13.07;;
26953;SDS011;14508;50.924;11.600;2024-02-26T14:10:27;25.05;;;12.38;;
26953;SDS011;14508;50.924;11.600;2024-02-26T14:12:56;28.02;;;13.30;;
26953;SDS011;14508;50.924;11.600;2024-02-26T14:15:24;34.22;;;13.82;;
26953;SDS011;14508;50.924;11.600;2024-02-26T14:17:53;36.67;;;11.02;;
26953;SDS011;14508;50.924;11.600;2024-02-26T14:20:23;23.60;;;12.80;;
26953;SDS011;14508;50.924;11.600;2024-02-26T14:22:53;29.95;;;11.95;;
26953;SDS011;14508;50.924;11.600;2024-02-26T14:25:21;25.75;;;12.80;;
26953;SDS011;14508;50.924;11.600;2024-02-26T14:27:53;21.23;;;11.77;;
26953;SDS011;14508;50.924;11.600;2024-02-26T14:30:21;27.02;;;12.20;;
26953;SDS011;14508;50.924;11.600;2024-02-26T14:32:49;21.20;;;11.15;;